AST,Max TemperatureF,Mean TemperatureF,Min TemperatureF,Max Dew PointF,MeanDew PointF,Min DewpointF,Max Humidity, Mean Humidity, Min Humidity, Max Sea Level PressureIn, Mean Sea Level PressureIn, Min Sea Level PressureIn, Max VisibilityMiles, Mean VisibilityMiles, Min VisibilityMiles, Max Wind SpeedMPH, Mean Wind SpeedMPH, Max Gust SpeedMPH,PrecipitationIn, CloudCover, Events, WindDirDegrees
2013-1-1,77,67,57,60,56,47,94,76,34,30.14,30.10,30.06,6,5,2,15,8,,0.00,0,,313
2013-1-2,77,66,56,59,54,48,90,66,36,30.18,30.12,30.07,6,6,6,9,5,,0.00,0,,318
2013-1-3,78,67,56,60,54,48,89,66,36,30.15,30.11,30.07,6,6,6,16,7,22,0.00,0,,305
2013-1-4,72,64,57,60,53,48,90,69,41,30.18,30.12,30.08,6,6,6,16,10,22,0.00,0,,315
2013-1-5,73,64,54,51,48,43,84,60,34,30.09,30.00,29.91,6,6,6,10,5,,0.00,0,,141
2013-1-6,81,69,57,64,55,45,90,66,28,30.01,29.93,29.86,6,6,6,18,8,,0.00,0,,145
2013-1-7,86,73,60,61,48,43,86,45,22,29.97,29.89,29.83,6,6,2,24,10,26,0.00,1,,189
2013-1-8,78,70,63,64,54,31,100,68,18,30.06,30.01,29.94,6,4,0,15,8,,0.00,0,Fog,339
2013-1-9,77,70,63,66,60,50,89,69,56,30.02,29.94,29.88,6,6,6,16,8,23,0.00,0,,66
2013-1-10,80,71,62,66,57,39,97,67,26,30.09,29.94,29.85,6,5,2,29,12,33,0.00,0,,334
2013-1-11,64,59,54,48,40,36,60,48,35,30.31,30.22,30.09,6,6,5,33,24,39,0.00,0,,331
2013-1-12,64,58,52,45,43,40,71,60,48,30.35,30.28,30.26,6,6,6,29,19,34,0.00,0,,310
2013-1-13,65,58,50,48,45,41,78,63,40,30.27,30.21,30.16,6,6,6,20,13,,0.00,0,,309
2013-1-14,66,60,54,47,43,33,68,54,42,30.23,30.17,30.12,6,6,6,23,16,,0.00,2,,314
2013-1-15,64,58,52,47,44,36,70,58,45,30.24,30.20,30.15,6,5,2,29,21,36,0.00,0,,306
2013-1-16,64,58,52,50,44,34,79,60,45,30.26,30.22,30.18,6,6,6,25,19,28,0.00,0,,310
2013-1-17,69,60,51,49,43,35,89,56,31,30.33,30.26,30.22,6,6,6,17,11,,0.00,0,,316
2013-1-18,70,58,47,47,42,38,71,54,31,30.28,30.20,30.14,6,6,6,9,4,,0.00,0,,327
2013-1-19,70,60,49,51,46,39,82,61,33,30.25,30.19,30.15,6,6,6,12,3,,0.00,0,,137
2013-1-20,75,62,50,54,46,36,83,58,25,30.19,30.12,30.08,6,6,6,8,3,,0.00,0,,155
2013-1-21,77,64,51,59,49,36,100,77,22,30.19,30.14,30.07,6,4,0,10,4,,0.00,1,Fog,175
2013-1-22,75,64,54,58,53,45,90,67,43,30.21,30.16,30.12,6,6,6,16,7,18,0.00,0,,324
2013-1-23,75,62,50,60,52,41,100,84,29,30.24,30.19,30.14,6,3,0,7,5,,0.00,0,Fog,285
2013-1-24,81,66,52,56,49,38,91,65,22,30.16,30.10,30.06,6,6,6,12,6,,0.00,0,,160
2013-1-25,84,70,57,57,45,35,81,50,17,30.15,30.09,30.04,6,6,6,9,7,,0.00,0,,171
2013-1-26,83,70,57,58,49,34,83,56,17,30.14,30.10,30.06,6,6,6,12,6,,0.00,0,,141
2013-1-27,86,72,58,60,51,34,86,58,15,30.13,30.08,30.01,6,6,6,14,6,,0.00,0,,137
2013-1-28,83,70,57,63,51,36,90,60,19,30.08,30.00,29.92,6,6,6,12,5,,0.00,0,,140
2013-1-29,80,72,64,60,54,46,83,58,32,29.96,29.89,29.83,6,6,6,24,8,31,0.00,1,,132
2013-1-30,73,66,60,55,52,48,71,59,40,30.01,29.97,29.92,6,5,1,21,16,26,0.00,0,,331
2013-1-31,74,66,58,64,58,50,85,72,58,29.96,29.90,29.84,6,5,3,13,6,,0.00,3,,65